Don Beauty — 3FVK5 — position and weather

sailwx.info

Track history (hours):
 
Tides and Currents Weather Stations Pressure Air Temp Water Temp Dewpoint Dewpoint Depression Visibility Wind Speed Wind Dir Waves Ship Positions

Don Beauty

Last reported at 2018-Jun-24 15:25 UTC. Time now 2018-Jun-25 05:48 UTC.
Position N 37°42' W 124°43'.

Length 169 m; draft 9 m.

Type: Cargo ship. MMSI: 351600646.

Date/timePositionNaut miles runAvg speedWind from/ knotsBaromVisibWave heightAir tempDewpointWater temp
2018-Jun-24 15:25N 37°42' W 124°43'410.0
2018-Jun-24 14:59N 37°42' W 124°38'510.3
2018-Jun-24 14:30N 37°41' W 124°32'510.6
2018-Jun-24 14:00N 37°41' W 124°25'511.0
2018-Jun-24 13:30N 37°40' W 124°18'611.4
2018-Jun-24 12:57N 37°40' W 124°10'511.3
2018-Jun-24 12:30N 37°39' W 124°04'611.2
2018-Jun-24 11:58N 37°38' W 123°56'510.5
2018-Jun-24 11:30N 37°38' W 123°50'510.6
2018-Jun-24 11:00N 37°37' W 123°44'510.6
2018-Jun-24 10:30N 37°37' W 123°37'610.5
2018-Jun-24 09:54N 37°36' W 123°29'510.7
2018-Jun-24 09:25N 37°36' W 123°23'510.9
2018-Jun-24 09:00N 37°35' W 123°17'510.8
2018-Jun-24 08:30N 37°35' W 123°10'510.5
2018-Jun-24 08:00N 37°35' W 123°04'611.3
2018-Jun-24 07:30N 37°38' W 122°58'611.2
2018-Jun-24 07:00N 37°41' W 122°52'611.1
2018-Jun-24 06:30N 37°44' W 122°46'5 9.7
2018-Jun-24 06:00N 37°46' W 122°40'4 8.4
2018-Jun-24 05:30N 37°47' W 122°35'611.3
2018-Jun-24 05:00N 37°49' W 122°29'4 8.1
2018-Jun-24 04:30N 37°52' W 122°25'5 9.6
2018-Jun-24 04:00N 37°57' W 122°27'5 9.2
2018-Jun-24 03:30N 38°01' W 122°24'5 9.6
2018-Jun-24 03:00N 38°03' W 122°18'5 9.8
2018-Jun-24 02:30N 38°03' W 122°12'3 6.7
2018-Jun-24 02:00N 38°02' W 122°08'0 0.6
2018-Jun-24 01:29N 38°03' W 122°08'0 0.0
2018-Jun-24 00:59N 38°03' W 122°08'0 0.0
2018-Jun-22 02:05N 38°03' W 122°08'  
2018-Jun-19 04:17N 38°03' W 122°08'0 0.0
2018-Jun-19 03:53N 38°03' W 122°08'0 0.0
2018-Jun-19 02:47N 38°03' W 122°08'0 0.0
2018-Jun-19 02:29N 38°03' W 122°08'  
2018-Jun-15 04:05N 38°03' W 122°08'0 0.0
2018-Jun-15 03:59N 38°03' W 122°08'0 0.0
2018-Jun-15 03:29N 38°03' W 122°08'  
Track history (hours):
 
Tides and Currents Weather Stations Pressure Air Temp Water Temp Dewpoint Dewpoint Depression Visibility Wind Speed Wind Dir Waves Ship Positions

Don Beauty

Last reported at 2018-Jun-24 15:25 UTC. Time now 2018-Jun-25 05:48 UTC.
Position N 37°42' W 124°43'.

Length 169 m; draft 9 m.

Type: Cargo ship. MMSI: 351600646.

Date/timePositionNaut miles runAvg speedWind from/ knotsBaromVisibWave heightAir tempDewpointWater temp
2018-Jun-24 15:25N 37°42' W 124°43'410.0
2018-Jun-24 14:59N 37°42' W 124°38'510.3
2018-Jun-24 14:30N 37°41' W 124°32'510.6
2018-Jun-24 14:00N 37°41' W 124°25'511.0
2018-Jun-24 13:30N 37°40' W 124°18'611.4
2018-Jun-24 12:57N 37°40' W 124°10'511.3
2018-Jun-24 12:30N 37°39' W 124°04'611.2
2018-Jun-24 11:58N 37°38' W 123°56'510.5
2018-Jun-24 11:30N 37°38' W 123°50'510.6
2018-Jun-24 11:00N 37°37' W 123°44'510.6
2018-Jun-24 10:30N 37°37' W 123°37'610.5
2018-Jun-24 09:54N 37°36' W 123°29'510.7
2018-Jun-24 09:25N 37°36' W 123°23'510.9
2018-Jun-24 09:00N 37°35' W 123°17'510.8
2018-Jun-24 08:30N 37°35' W 123°10'510.5
2018-Jun-24 08:00N 37°35' W 123°04'611.3
2018-Jun-24 07:30N 37°38' W 122°58'611.2
2018-Jun-24 07:00N 37°41' W 122°52'611.1
2018-Jun-24 06:30N 37°44' W 122°46'5 9.7
2018-Jun-24 06:00N 37°46' W 122°40'4 8.4
2018-Jun-24 05:30N 37°47' W 122°35'611.3
2018-Jun-24 05:00N 37°49' W 122°29'4 8.1
2018-Jun-24 04:30N 37°52' W 122°25'5 9.6
2018-Jun-24 04:00N 37°57' W 122°27'5 9.2
2018-Jun-24 03:30N 38°01' W 122°24'5 9.6
2018-Jun-24 03:00N 38°03' W 122°18'5 9.8
2018-Jun-24 02:30N 38°03' W 122°12'3 6.7
2018-Jun-24 02:00N 38°02' W 122°08'0 0.6
2018-Jun-24 01:29N 38°03' W 122°08'0 0.0
2018-Jun-24 00:59N 38°03' W 122°08'0 0.0
2018-Jun-22 02:05N 38°03' W 122°08'  
2018-Jun-19 04:17N 38°03' W 122°08'0 0.0
2018-Jun-19 03:53N 38°03' W 122°08'0 0.0
2018-Jun-19 02:47N 38°03' W 122°08'0 0.0
2018-Jun-19 02:29N 38°03' W 122°08'  
2018-Jun-15 04:05N 38°03' W 122°08'0 0.0
2018-Jun-15 03:59N 38°03' W 122°08'0 0.0
2018-Jun-15 03:29N 38°03' W 122°08'  

Dump ship's entire track history